createdAt,value
2023-04-19T00:02:00.952Z,10.50
2023-04-19T00:04:25.682Z,8.80
2023-04-19T00:06:52.515Z,8.50
2023-04-19T00:09:15.933Z,8.80
2023-04-19T00:11:39.897Z,8.90
2023-04-19T00:16:28.261Z,7.90
2023-04-19T00:18:51.866Z,8.10
2023-04-19T00:21:16.165Z,6.30
2023-04-19T00:23:39.634Z,7.60
2023-04-19T00:26:04.341Z,9.60
2023-04-19T00:28:27.890Z,7.40
2023-04-19T00:30:53.568Z,7.00
2023-04-19T00:33:17.393Z,7.20
2023-04-19T00:35:41.644Z,8.60
2023-04-19T00:38:05.081Z,7.60
2023-04-19T00:40:28.878Z,9.30
2023-04-19T00:42:52.380Z,8.30
2023-04-19T00:45:15.804Z,7.20
2023-04-19T00:48:00.236Z,10.80
2023-04-19T00:50:44.582Z,10.40
2023-04-19T00:53:08.611Z,9.60
2023-04-19T00:55:32.563Z,9.20
2023-04-19T00:57:57.083Z,9.70
2023-04-19T01:00:21.081Z,10.40
2023-04-19T01:02:48.191Z,9.50
2023-04-19T01:05:20.495Z,8.90
2023-04-19T01:07:46.536Z,12.70
2023-04-19T01:10:11.696Z,10.50
2023-04-19T01:12:55.665Z,9.80
2023-04-19T01:15:22.839Z,8.80
2023-04-19T01:17:49.591Z,10.90
2023-04-19T01:20:13.634Z,12.50
2023-04-19T01:22:41.067Z,11.90
2023-04-19T01:25:21.993Z,10.70
2023-04-19T01:27:45.597Z,9.70
2023-04-19T01:30:29.539Z,10.70
2023-04-19T01:33:13.175Z,9.80
2023-04-19T01:35:57.327Z,9.10
2023-04-19T01:38:41.052Z,10.00
2023-04-19T01:41:26.599Z,10.40
2023-04-19T01:44:10.580Z,12.90
2023-04-19T01:46:54.930Z,11.40
2023-04-19T01:49:38.675Z,11.60
2023-04-19T01:52:22.842Z,11.70
2023-04-19T01:54:55.519Z,11.90
2023-04-19T01:57:28.231Z,10.70
2023-04-19T02:00:14.484Z,13.10
2023-04-19T02:02:38.306Z,11.20
2023-04-19T02:05:18.839Z,10.60
2023-04-19T02:08:03.078Z,9.30
2023-04-19T02:10:46.799Z,10.20
2023-04-19T02:13:10.536Z,11.20
2023-04-19T02:15:37.989Z,11.40
2023-04-19T02:18:13.045Z,10.20
2023-04-19T02:20:46.478Z,10.70
2023-04-19T02:23:30.933Z,11.60
2023-04-19T02:25:54.488Z,10.70
2023-04-19T02:28:38.663Z,14.90
2023-04-19T02:31:15.893Z,11.40
2023-04-19T02:34:00.012Z,12.80
2023-04-19T02:36:23.689Z,11.00
2023-04-19T02:38:51.546Z,12.50
2023-04-19T02:41:17.459Z,10.30
2023-04-19T02:43:53.512Z,13.20
2023-04-19T02:46:36.421Z,11.00
2023-04-19T02:49:21.104Z,12.30
2023-04-19T02:51:54.965Z,11.20
2023-04-19T02:54:29.163Z,11.30
2023-04-19T02:56:57.209Z,13.60
2023-04-19T02:59:33.664Z,14.60
2023-04-19T03:02:18.080Z,12.90
2023-04-19T03:04:46.921Z,11.10
2023-04-19T03:07:30.729Z,12.20
2023-04-19T03:10:14.382Z,11.10
2023-04-19T03:12:40.485Z,12.50
2023-04-19T03:15:17.573Z,11.00
2023-04-19T03:18:01.931Z,11.30
2023-04-19T03:20:27.973Z,12.40
2023-04-19T03:22:52.846Z,14.30
2023-04-19T03:25:36.586Z,9.30
2023-04-19T03:28:11.618Z,10.10
2023-04-19T03:30:55.398Z,10.20
2023-04-19T03:33:39.035Z,12.10
2023-04-19T03:36:23.179Z,13.10
2023-04-19T03:38:52.251Z,10.30
2023-04-19T03:41:21.391Z,11.40
2023-04-19T03:43:54.580Z,11.70
2023-04-19T03:46:21.013Z,12.50
2023-04-19T03:48:47.587Z,12.70
2023-04-19T03:51:12.939Z,12.00
2023-04-19T03:53:56.842Z,11.90
2023-04-19T03:56:24.380Z,14.50
2023-04-19T03:59:04.113Z,10.90
2023-04-19T04:01:33.340Z,12.50
2023-04-19T04:04:00.510Z,13.30
2023-04-19T04:06:38.698Z,11.10
2023-04-19T04:09:22.433Z,11.40
2023-04-19T04:12:07.062Z,12.10
2023-04-19T04:14:50.891Z,11.30
2023-04-19T04:17:18.169Z,13.40
2023-04-19T04:19:52.009Z,11.80
2023-04-19T04:22:35.936Z,12.00
2023-04-19T04:25:02.603Z,14.30
2023-04-19T04:27:34.047Z,13.10
2023-04-19T04:30:18.466Z,15.20
2023-04-19T04:33:02.209Z,16.20
2023-04-19T04:35:46.870Z,10.70
2023-04-19T04:38:23.960Z,10.60
2023-04-19T04:40:53.199Z,11.20
2023-04-19T04:43:37.746Z,11.70
2023-04-19T04:46:21.946Z,11.60
2023-04-19T04:49:06.686Z,11.60
2023-04-19T04:51:51.144Z,12.10
2023-04-19T04:54:17.999Z,9.70
2023-04-19T04:56:51.874Z,12.70
2023-04-19T04:59:35.993Z,10.00
2023-04-19T05:02:03.729Z,9.70
2023-04-19T05:04:39.812Z,13.00
2023-04-19T05:07:24.442Z,12.10
2023-04-19T05:09:48.062Z,11.00
2023-04-19T05:12:15.340Z,12.20
2023-04-19T05:14:59.418Z,10.30
2023-04-19T05:17:23.876Z,14.00
2023-04-19T05:20:09.726Z,13.00
2023-04-19T05:22:57.998Z,12.30
2023-04-19T05:25:31.789Z,11.70
2023-04-19T05:27:58.604Z,13.40
2023-04-19T05:30:30.245Z,13.40
2023-04-19T05:33:02.929Z,15.90
2023-04-19T05:35:47.933Z,16.90
2023-04-19T05:38:11.757Z,18.20
2023-04-19T05:40:35.386Z,18.40
2023-04-19T05:43:21.406Z,30.50
2023-04-19T05:45:44.925Z,15.00
2023-04-19T05:48:17.107Z,15.30
2023-04-19T05:51:01.473Z,16.80
2023-04-19T05:54:03.732Z,15.20
2023-04-19T05:56:30.531Z,16.10
2023-04-19T05:58:55.680Z,14.50
2023-04-19T06:01:40.250Z,14.70
2023-04-19T06:04:24.900Z,14.10
2023-04-19T06:06:52.498Z,13.40
2023-04-19T06:09:36.097Z,14.70
2023-04-19T06:12:20.114Z,13.20
2023-04-19T06:14:43.654Z,14.20
2023-04-19T06:17:23.975Z,14.20
2023-04-19T06:20:10.179Z,15.10
2023-04-19T06:22:54.107Z,15.20
2023-04-19T06:25:38.045Z,12.50
2023-04-19T06:28:22.091Z,14.90
2023-04-19T06:30:45.993Z,13.90
2023-04-19T06:33:12.816Z,13.40
2023-04-19T06:35:39.342Z,14.80
2023-04-19T06:38:14.177Z,15.00
2023-04-19T06:40:40.406Z,16.50
2023-04-19T06:43:05.812Z,15.60
2023-04-19T06:45:32.853Z,15.30
2023-04-19T06:48:16.868Z,19.50
2023-04-19T06:50:50.685Z,19.80
2023-04-19T06:53:35.103Z,20.20
2023-04-19T06:56:00.515Z,19.90
2023-04-19T06:58:32.763Z,21.80
2023-04-19T07:01:18.617Z,18.80
2023-04-19T07:04:02.666Z,19.90
2023-04-19T07:06:27.076Z,20.40
2023-04-19T07:08:55.218Z,24.80
2023-04-19T07:11:20.393Z,20.00
2023-04-19T07:13:47.924Z,24.20
2023-04-19T07:16:12.636Z,21.60
2023-04-19T07:18:39.543Z,24.30
2023-04-19T07:21:24.710Z,25.40
2023-04-19T07:23:57.057Z,22.60
2023-04-19T07:26:34.397Z,21.10
2023-04-19T07:29:18.575Z,26.10
2023-04-19T07:31:42.517Z,22.40
2023-04-19T07:34:05.978Z,18.40
2023-04-19T07:36:40.788Z,23.20
2023-04-19T07:39:05.275Z,17.30
2023-04-19T07:41:28.950Z,39.30
2023-04-19T07:44:02.962Z,21.50
2023-04-19T07:46:47.010Z,19.70
2023-04-19T07:49:10.772Z,15.90
2023-04-19T07:51:54.827Z,17.30
2023-04-19T07:54:38.964Z,18.10
2023-04-19T07:57:02.979Z,15.20
2023-04-19T07:59:26.475Z,16.30
2023-04-19T08:02:07.579Z,16.70
2023-04-19T08:04:51.680Z,17.30
2023-04-19T08:07:25.643Z,15.90
2023-04-19T08:09:51.841Z,14.20
2023-04-19T08:12:30.446Z,16.60
2023-04-19T08:17:46.279Z,15.60
2023-04-19T08:20:13.881Z,14.80
2023-04-19T08:22:38.551Z,15.30
2023-04-19T08:25:02.126Z,14.40
2023-04-19T08:27:48.318Z,15.90
2023-04-19T08:30:32.777Z,15.90
2023-04-19T08:32:57.443Z,14.50
2023-04-19T08:35:41.845Z,13.80
2023-04-19T08:38:05.804Z,14.70
2023-04-19T08:40:30.746Z,15.10
2023-04-19T08:43:17.062Z,13.50
2023-04-19T08:45:48.879Z,13.60
2023-04-19T08:48:35.302Z,15.80
2023-04-19T08:51:13.019Z,13.10
2023-04-19T08:53:48.361Z,20.00
2023-04-19T08:56:27.823Z,14.70
2023-04-19T08:59:20.529Z,14.70
2023-04-19T09:01:47.527Z,12.20
2023-04-19T09:04:36.734Z,12.20
2023-04-19T09:07:01.238Z,14.50
2023-04-19T09:12:17.282Z,13.20
2023-04-19T09:14:57.767Z,12.80
2023-04-19T09:17:34.564Z,13.80
2023-04-19T09:20:06.123Z,14.90
2023-04-19T09:22:41.034Z,12.10
2023-04-19T09:27:35.646Z,12.00
2023-04-19T09:30:00.727Z,10.70
2023-04-19T09:32:24.706Z,11.10
2023-04-19T09:34:58.805Z,12.10
2023-04-19T09:37:39.112Z,11.00
2023-04-19T09:40:26.305Z,12.10
2023-04-19T09:43:15.128Z,10.60
2023-04-19T09:45:46.682Z,12.30
2023-04-19T09:48:31.369Z,11.30
2023-04-19T09:51:15.413Z,16.60
2023-04-19T09:54:00.133Z,11.30
2023-04-19T09:56:45.150Z,14.40
2023-04-19T09:59:29.189Z,10.70
2023-04-19T10:01:57.465Z,12.60
2023-04-19T10:04:59.654Z,12.90
2023-04-19T10:07:36.988Z,12.40
2023-04-19T10:10:18.822Z,11.90
2023-04-19T10:16:15.615Z,11.70
2023-04-19T10:19:06.425Z,13.90
2023-04-19T10:21:43.145Z,12.80
2023-04-19T10:24:12.377Z,11.00
2023-04-19T10:27:12.635Z,12.40
2023-04-19T10:29:56.591Z,11.90
2023-04-19T10:32:37.424Z,11.60
2023-04-19T10:35:20.026Z,11.20
2023-04-19T10:38:06.698Z,11.10
2023-04-19T10:41:01.139Z,12.00
2023-04-19T10:43:47.314Z,11.60
2023-04-19T10:46:40.121Z,13.90
2023-04-19T10:49:24.657Z,11.70
2023-04-19T10:52:29.022Z,16.30
2023-04-19T10:55:08.161Z,12.10
2023-04-19T10:58:06.200Z,11.90
2023-04-19T11:03:52.908Z,12.30
2023-04-19T11:06:38.514Z,11.70
2023-04-19T11:09:04.842Z,11.40
2023-04-19T11:14:07.781Z,17.40
2023-04-19T11:16:42.388Z,11.30
2023-04-19T11:19:15.035Z,12.40
2023-04-19T11:24:22.999Z,10.80
2023-04-19T11:26:47.474Z,10.50
2023-04-19T11:29:11.454Z,16.90
2023-04-19T11:34:23.995Z,11.60
2023-04-19T11:36:51.687Z,11.70
2023-04-19T11:39:15.699Z,12.20
2023-04-19T11:41:39.886Z,11.80
2023-04-19T11:44:03.656Z,10.80
2023-04-19T11:46:27.070Z,13.30
2023-04-19T11:48:54.074Z,17.60
2023-04-19T11:51:18.138Z,16.00
2023-04-19T11:53:41.786Z,12.70
2023-04-19T11:56:10.098Z,9.70
2023-04-19T11:58:37.131Z,11.10
2023-04-19T12:01:06.182Z,9.10
2023-04-19T12:03:52.372Z,12.70
2023-04-19T12:06:26.239Z,10.40
2023-04-19T12:08:51.994Z,10.70
2023-04-19T12:11:44.818Z,11.30
2023-04-19T12:14:12.095Z,9.40
2023-04-19T12:16:35.711Z,8.50
2023-04-19T12:19:20.070Z,8.90
2023-04-19T12:21:47.259Z,12.40
2023-04-19T12:24:12.085Z,9.00
2023-04-19T12:26:37.044Z,8.60
2023-04-19T12:29:03.071Z,9.80
2023-04-19T12:31:37.257Z,9.90
2023-04-19T12:34:11.927Z,11.60
2023-04-19T12:36:35.502Z,12.10
2023-04-19T12:39:19.781Z,12.70
2023-04-19T12:41:43.322Z,12.50
2023-04-19T12:44:07.182Z,9.10
2023-04-19T12:46:31.008Z,17.40
2023-04-19T12:49:17.781Z,12.70
2023-04-19T12:51:42.460Z,10.60
2023-04-19T12:54:08.489Z,10.50
2023-04-19T12:56:32.023Z,11.90
2023-04-19T12:58:55.949Z,11.80
2023-04-19T13:01:19.608Z,12.50
2023-04-19T13:04:03.947Z,11.90
2023-04-19T13:06:47.728Z,14.30
2023-04-19T13:09:14.936Z,10.90
2023-04-19T13:11:43.371Z,14.30
2023-04-19T13:14:28.773Z,10.90
2023-04-19T13:17:12.727Z,13.30
2023-04-19T13:19:36.488Z,16.20
2023-04-19T13:21:59.964Z,12.20
2023-04-19T13:24:28.846Z,7.80
2023-04-19T13:26:52.797Z,12.10
2023-04-19T13:31:42.895Z,12.60
2023-04-19T13:34:27.115Z,10.70
2023-04-19T13:36:50.644Z,8.50
2023-04-19T13:39:14.132Z,8.10
2023-04-19T13:41:38.217Z,10.40
2023-04-19T13:44:04.439Z,9.00
2023-04-19T13:46:28.041Z,8.40
2023-04-19T13:48:52.295Z,11.30
2023-04-19T13:51:15.788Z,7.20
2023-04-19T13:53:48.041Z,8.60
2023-04-19T13:56:12.040Z,7.60
2023-04-19T13:58:38.579Z,9.90
2023-04-19T14:01:21.748Z,9.80
2023-04-19T14:03:50.419Z,7.00
2023-04-19T14:06:13.892Z,8.00
2023-04-19T14:08:37.823Z,8.00
2023-04-19T14:11:01.455Z,8.50
2023-04-19T14:13:45.790Z,12.40
2023-04-19T14:16:12.091Z,13.00
2023-04-19T14:18:56.142Z,10.30
2023-04-19T14:21:40.488Z,10.20
2023-04-19T14:24:15.376Z,8.40
2023-04-19T14:27:07.241Z,8.70
2023-04-19T14:29:33.668Z,23.30
2023-04-19T14:32:01.244Z,10.40
2023-04-19T14:34:28.511Z,9.60
2023-04-19T14:36:52.290Z,8.10
2023-04-19T14:39:16.097Z,10.70
2023-04-19T14:41:40.094Z,10.70
2023-04-19T14:44:04.554Z,7.60
2023-04-19T14:46:28.175Z,9.00
2023-04-19T14:48:51.766Z,12.10
2023-04-19T14:51:18.558Z,10.50
2023-04-19T14:53:41.951Z,8.90
2023-04-19T14:56:09.259Z,11.60
2023-04-19T14:58:33.022Z,12.30
2023-04-19T15:00:59.701Z,9.20
2023-04-19T15:03:23.393Z,10.20
2023-04-19T15:05:47.500Z,9.10
2023-04-19T15:08:26.925Z,9.30
2023-04-19T15:10:53.774Z,7.80
2023-04-19T15:13:17.143Z,9.60
2023-04-19T15:15:40.675Z,7.60
2023-04-19T15:18:04.893Z,7.80
2023-04-19T15:20:28.726Z,9.10
2023-04-19T15:23:06.477Z,10.20
2023-04-19T15:25:43.953Z,8.70
2023-04-19T15:28:07.780Z,9.10
2023-04-19T15:30:31.170Z,11.50
2023-04-19T15:32:54.598Z,10.80
2023-04-19T15:35:18.421Z,11.00
2023-04-19T15:37:43.181Z,10.30
2023-04-19T15:40:10.841Z,6.70
2023-04-19T15:42:43.093Z,6.20
2023-04-19T15:45:10.757Z,8.10
2023-04-19T15:47:43.625Z,6.70
2023-04-19T15:50:08.442Z,10.30
2023-04-19T15:52:31.888Z,7.10
2023-04-19T15:54:55.465Z,7.90
2023-04-19T15:57:19.090Z,7.50
2023-04-19T15:59:51.771Z,7.00
2023-04-19T16:02:36.075Z,8.30
2023-04-19T16:04:59.948Z,10.20
2023-04-19T16:07:28.508Z,6.50
2023-04-19T16:09:52.197Z,6.60
2023-04-19T16:12:20.725Z,8.10
2023-04-19T16:15:06.452Z,7.10
2023-04-19T16:17:32.497Z,5.70
2023-04-19T16:19:56.121Z,9.40
2023-04-19T16:22:20.014Z,8.90
2023-04-19T16:24:54.917Z,6.90
2023-04-19T16:27:21.554Z,6.80
2023-04-19T16:29:45.116Z,8.10
2023-04-19T16:32:09.803Z,10.10
2023-04-19T16:34:33.532Z,7.00
2023-04-19T16:36:56.987Z,8.90
2023-04-19T16:39:20.429Z,6.80
2023-04-19T16:41:44.383Z,8.20
2023-04-19T16:44:07.845Z,10.30
2023-04-19T16:46:31.377Z,5.50
2023-04-19T16:48:58.204Z,8.30
2023-04-19T16:51:22.345Z,7.60
2023-04-19T16:53:46.587Z,9.40
2023-04-19T16:56:10.693Z,7.70
2023-04-19T16:58:34.098Z,8.80
2023-04-19T17:00:57.958Z,10.60
2023-04-19T17:03:21.686Z,7.90
2023-04-19T17:05:45.468Z,8.40
2023-04-19T17:08:10.576Z,8.90
2023-04-19T17:10:34.371Z,8.10
2023-04-19T17:12:57.864Z,8.60
2023-04-19T17:15:42.426Z,11.40
2023-04-19T17:18:12.684Z,10.10
2023-04-19T17:20:38.736Z,9.20
2023-04-19T17:23:05.279Z,7.90
2023-04-19T17:25:41.666Z,8.20
2023-04-19T17:28:18.230Z,9.90
2023-04-19T17:30:41.812Z,10.70
2023-04-19T17:33:05.368Z,7.80
2023-04-19T17:35:29.230Z,10.20
2023-04-19T17:37:52.960Z,9.60
2023-04-19T17:40:16.323Z,10.40
2023-04-19T17:42:40.117Z,10.50
2023-04-19T17:45:06.068Z,12.80
2023-04-19T17:47:29.510Z,10.10
2023-04-19T17:49:53.235Z,13.20
2023-04-19T17:52:17.064Z,10.50
2023-04-19T17:54:40.509Z,11.30
2023-04-19T17:57:04.380Z,12.30
2023-04-19T17:59:28.027Z,12.90
2023-04-19T18:01:51.602Z,12.60
2023-04-19T18:04:17.367Z,11.50
2023-04-19T18:06:41.157Z,15.40
2023-04-19T18:09:04.764Z,14.00
2023-04-19T18:11:28.773Z,13.60
2023-04-19T18:13:53.082Z,13.70
2023-04-19T18:16:25.721Z,14.00
2023-04-19T18:18:49.566Z,14.10
2023-04-19T18:21:20.505Z,16.10
2023-04-19T18:23:46.495Z,14.60
2023-04-19T18:26:10.235Z,15.50
2023-04-19T18:28:37.143Z,18.30
2023-04-19T18:31:00.826Z,16.20
2023-04-19T18:33:24.610Z,14.90
2023-04-19T18:35:48.296Z,15.90
2023-04-19T18:38:11.687Z,18.20
2023-04-19T18:40:35.266Z,13.40
2023-04-19T18:42:59.049Z,17.90
2023-04-19T18:45:23.026Z,19.00
2023-04-19T18:47:48.194Z,20.40
2023-04-19T18:50:15.962Z,21.00
2023-04-19T18:52:42.007Z,21.60
2023-04-19T18:55:06.933Z,19.30
2023-04-19T18:57:34.185Z,21.90
2023-04-19T18:59:58.959Z,17.00
2023-04-19T19:02:43.995Z,17.90
2023-04-19T19:05:29.481Z,19.60
2023-04-19T19:07:53.344Z,22.70
2023-04-19T19:10:20.983Z,20.60
2023-04-19T19:13:06.337Z,19.70
2023-04-19T19:15:30.196Z,19.10
2023-04-19T19:17:53.736Z,21.00
2023-04-19T19:20:17.750Z,20.10
2023-04-19T19:22:45.106Z,20.80
2023-04-19T19:25:10.319Z,19.00
2023-04-19T19:27:34.288Z,18.40
2023-04-19T19:29:58.443Z,18.70
2023-04-19T19:32:22.081Z,20.00
2023-04-19T19:37:16.305Z,21.50
2023-04-19T19:39:39.863Z,19.00
2023-04-19T19:42:06.246Z,16.50
2023-04-19T19:44:30.142Z,22.40
2023-04-19T19:47:10.265Z,23.60
2023-04-19T19:49:51.979Z,23.10
2023-04-19T19:52:28.149Z,17.80
2023-04-19T19:54:53.950Z,18.90
2023-04-19T19:59:51.682Z,17.10
2023-04-19T20:02:18.369Z,16.90
2023-04-19T20:04:42.283Z,17.10
2023-04-19T20:07:32.599Z,15.80
2023-04-19T20:09:52.800Z,17.80
2023-04-19T20:12:16.406Z,14.60
2023-04-19T20:14:42.797Z,15.70
2023-04-19T20:17:06.471Z,14.80
2023-04-19T20:19:30.269Z,13.70
2023-04-19T20:21:53.909Z,16.00
2023-04-19T20:24:17.595Z,16.20
2023-04-19T20:26:41.340Z,16.30
2023-04-19T20:29:04.929Z,16.30
2023-04-19T20:31:28.697Z,16.80
2023-04-19T20:33:52.855Z,20.70
2023-04-19T20:36:17.370Z,19.50
2023-04-19T20:38:40.817Z,18.60
2023-04-19T20:41:04.409Z,17.70
2023-04-19T20:43:27.892Z,16.30
2023-04-19T20:45:51.321Z,17.00
2023-04-19T20:48:15.401Z,20.40
2023-04-19T20:50:41.984Z,18.10
2023-04-19T20:53:26.167Z,15.60
2023-04-19T20:55:58.598Z,13.90
2023-04-19T20:58:42.905Z,18.60
2023-04-19T21:01:16.740Z,16.90
2023-04-19T21:03:40.511Z,19.10
2023-04-19T21:06:04.896Z,14.30
2023-04-19T21:08:30.953Z,14.90
2023-04-19T21:10:54.349Z,16.50
2023-04-19T21:13:17.805Z,17.50
2023-04-19T21:15:41.571Z,15.80
2023-04-19T21:18:05.207Z,16.00
2023-04-19T21:20:28.992Z,27.60
2023-04-19T21:22:52.590Z,17.90
2023-04-19T21:25:16.766Z,16.50
2023-04-19T21:27:41.852Z,17.80
2023-04-19T21:30:07.412Z,16.20
2023-04-19T21:32:43.470Z,16.10
2023-04-19T21:35:08.560Z,17.90
2023-04-19T21:37:36.250Z,14.30
2023-04-19T21:40:02.807Z,14.30
2023-04-19T21:42:46.626Z,14.60
2023-04-19T21:45:29.033Z,17.10
2023-04-19T21:47:52.826Z,11.70
2023-04-19T21:50:25.903Z,15.80
2023-04-19T21:52:49.533Z,16.30
2023-04-19T21:55:13.214Z,13.60
2023-04-19T21:57:37.705Z,15.20
2023-04-19T22:00:08.982Z,14.90
2023-04-19T22:02:32.593Z,16.60
2023-04-19T22:05:06.867Z,16.30
2023-04-19T22:07:44.245Z,16.20
2023-04-19T22:10:28.871Z,13.40
2023-04-19T22:12:58.394Z,14.70
2023-04-19T22:15:22.664Z,13.20
2023-04-19T22:17:49.834Z,15.00
2023-04-19T22:20:26.164Z,14.00
2023-04-19T22:22:49.743Z,14.10
2023-04-19T22:25:15.792Z,18.60
2023-04-19T22:27:39.518Z,17.70
2023-04-19T22:30:03.081Z,19.60
2023-04-19T22:32:27.137Z,18.60
2023-04-19T22:34:50.925Z,19.70
2023-04-19T22:37:14.374Z,15.60
2023-04-19T22:39:40.085Z,14.90
2023-04-19T22:42:06.692Z,18.20
2023-04-19T22:44:33.247Z,18.80
2023-04-19T22:46:57.463Z,16.60
2023-04-19T22:49:21.960Z,17.50
2023-04-19T22:51:45.422Z,17.80
2023-04-19T22:54:08.935Z,17.10
2023-04-19T22:56:32.772Z,18.10
2023-04-19T22:58:56.635Z,18.00
2023-04-19T23:01:20.148Z,20.60
2023-04-19T23:04:04.562Z,17.70
2023-04-19T23:06:43.794Z,20.50
2023-04-19T23:09:17.798Z,16.20
2023-04-19T23:11:41.765Z,18.70
2023-04-19T23:14:05.641Z,15.40
2023-04-19T23:16:29.449Z,15.90
2023-04-19T23:18:53.686Z,15.90
2023-04-19T23:21:17.278Z,15.90
2023-04-19T23:24:01.152Z,20.70
2023-04-19T23:26:26.870Z,17.70
2023-04-19T23:28:50.554Z,19.80
2023-04-19T23:31:23.619Z,15.70
2023-04-19T23:33:55.896Z,18.90
2023-04-19T23:36:19.283Z,18.00
2023-04-19T23:38:43.108Z,16.40
2023-04-19T23:43:34.216Z,18.80
2023-04-19T23:46:08.105Z,16.60
2023-04-19T23:48:58.635Z,16.50
2023-04-19T23:51:25.082Z,19.20
2023-04-19T23:53:48.928Z,16.40
2023-04-19T23:56:12.507Z,12.70
2023-04-19T23:58:36.322Z,13.90
